createdAt,value
2023-07-23T00:01:21.676Z,26.07
2023-07-23T00:03:48.266Z,24.66
2023-07-23T00:06:14.917Z,25.27
2023-07-23T00:08:41.546Z,24.79
2023-07-23T00:11:08.131Z,25.62
2023-07-23T00:13:34.798Z,24.60
2023-07-23T00:16:01.483Z,25.37
2023-07-23T00:18:28.077Z,23.35
2023-07-23T00:20:54.716Z,23.82
2023-07-23T00:23:21.321Z,24.13
2023-07-23T00:25:47.980Z,24.42
2023-07-23T00:28:14.626Z,24.44
2023-07-23T00:30:41.177Z,24.35
2023-07-23T00:33:07.777Z,23.22
2023-07-23T00:35:34.306Z,24.61
2023-07-23T00:38:00.835Z,25.21
2023-07-23T00:40:27.449Z,24.63
2023-07-23T00:42:53.993Z,24.49
2023-07-23T00:45:20.768Z,24.92
2023-07-23T00:47:47.386Z,24.65
2023-07-23T00:50:14.089Z,24.14
2023-07-23T00:52:40.688Z,24.20
2023-07-23T00:55:07.278Z,23.97
2023-07-23T00:57:33.822Z,24.42
2023-07-23T01:00:00.431Z,24.76
2023-07-23T01:02:27.085Z,24.44
2023-07-23T01:04:53.767Z,23.80
2023-07-23T01:07:20.302Z,24.54
2023-07-23T01:09:46.947Z,23.29
2023-07-23T01:12:13.599Z,23.95
2023-07-23T01:14:40.283Z,23.90
2023-07-23T01:17:06.868Z,23.20
2023-07-23T01:19:33.479Z,22.37
2023-07-23T01:22:00.073Z,23.04
2023-07-23T01:24:26.674Z,23.40
2023-07-23T01:26:53.239Z,23.46
2023-07-23T01:29:19.772Z,23.30
2023-07-23T01:31:46.372Z,23.82
2023-07-23T01:34:13.008Z,24.37
2023-07-23T01:36:39.665Z,24.19
2023-07-23T01:39:06.262Z,24.27
2023-07-23T01:41:32.890Z,23.93
2023-07-23T01:43:59.564Z,24.88
2023-07-23T01:46:26.172Z,23.42
2023-07-23T01:48:52.716Z,23.31
2023-07-23T01:51:19.284Z,24.71
2023-07-23T01:53:45.917Z,23.44
2023-07-23T01:56:12.580Z,23.67
2023-07-23T01:58:39.186Z,25.19
2023-07-23T02:01:05.919Z,22.77
2023-07-23T02:03:32.722Z,24.54
2023-07-23T02:05:59.329Z,25.37
2023-07-23T02:08:25.885Z,24.31
2023-07-23T02:10:52.494Z,23.66
2023-07-23T02:13:19.050Z,24.21
2023-07-23T02:15:45.643Z,24.75
2023-07-23T02:18:12.239Z,22.94
2023-07-23T02:20:38.804Z,22.93
2023-07-23T02:23:05.389Z,23.96
2023-07-23T02:25:32.020Z,23.62
2023-07-23T02:27:58.533Z,24.04
2023-07-23T02:30:25.090Z,23.25
2023-07-23T02:32:51.698Z,23.16
2023-07-23T02:35:18.312Z,23.20
2023-07-23T02:37:44.940Z,22.43
2023-07-23T02:40:11.513Z,22.79
2023-07-23T02:42:38.054Z,24.04
2023-07-23T02:45:04.678Z,22.63
2023-07-23T02:47:31.277Z,22.80
2023-07-23T02:49:57.879Z,24.03
2023-07-23T02:52:24.459Z,23.36
2023-07-23T02:54:50.985Z,24.01
2023-07-23T02:57:17.656Z,23.28
2023-07-23T02:59:44.316Z,22.56
2023-07-23T03:02:10.943Z,24.01
2023-07-23T03:04:37.626Z,22.23
2023-07-23T03:07:04.226Z,24.22
2023-07-23T03:09:30.801Z,24.84
2023-07-23T03:11:57.421Z,23.92
2023-07-23T03:14:24.006Z,22.12
2023-07-23T03:16:50.534Z,24.14
2023-07-23T03:19:17.118Z,22.02
2023-07-23T03:21:43.769Z,22.85
2023-07-23T03:24:10.357Z,21.44
2023-07-23T03:26:36.971Z,22.30
2023-07-23T03:29:03.653Z,23.88
2023-07-23T03:31:30.595Z,23.41
2023-07-23T03:33:57.345Z,23.93
2023-07-23T03:36:23.934Z,23.94
2023-07-23T03:38:50.485Z,23.40
2023-07-23T03:41:17.120Z,23.90
2023-07-23T03:43:44.747Z,23.20
2023-07-23T03:46:11.415Z,24.64
2023-07-23T03:48:38.027Z,22.93
2023-07-23T03:51:04.599Z,23.65
2023-07-23T03:53:31.172Z,24.03
2023-07-23T03:55:57.773Z,23.83
2023-07-23T03:58:24.337Z,25.46
2023-07-23T04:00:50.920Z,25.31
2023-07-23T04:03:17.516Z,23.80
2023-07-23T04:05:44.089Z,23.01
2023-07-23T04:08:10.678Z,24.32
2023-07-23T04:10:37.305Z,23.87
2023-07-23T04:13:03.920Z,23.50
2023-07-23T04:15:30.498Z,21.97
2023-07-23T04:17:57.096Z,23.77
2023-07-23T04:20:23.650Z,24.51
2023-07-23T04:22:50.221Z,25.47
2023-07-23T04:25:16.785Z,25.24
2023-07-23T04:27:43.421Z,23.51
2023-07-23T04:30:10.061Z,24.02
2023-07-23T04:32:36.726Z,24.00
2023-07-23T04:35:03.561Z,23.30
2023-07-23T04:37:30.169Z,25.68
2023-07-23T04:39:56.706Z,25.91
2023-07-23T04:42:23.202Z,22.92
2023-07-23T04:44:49.829Z,22.47
2023-07-23T04:47:16.418Z,22.93
2023-07-23T04:49:42.983Z,23.52
2023-07-23T04:52:09.580Z,23.75
2023-07-23T04:54:36.152Z,24.69
2023-07-23T04:57:02.795Z,22.06
2023-07-23T04:59:29.367Z,23.74
2023-07-23T05:01:55.955Z,24.25
2023-07-23T05:04:22.510Z,24.15
2023-07-23T05:06:49.154Z,23.91
2023-07-23T05:09:15.805Z,24.39
2023-07-23T05:11:42.384Z,23.01
2023-07-23T05:14:08.958Z,22.37
2023-07-23T05:16:35.567Z,24.54
2023-07-23T05:19:02.115Z,22.87
2023-07-23T05:21:28.958Z,23.84
2023-07-23T05:23:55.728Z,23.82
2023-07-23T05:26:22.250Z,24.58
2023-07-23T05:28:48.867Z,24.55
2023-07-23T05:31:15.496Z,25.30
2023-07-23T05:33:42.115Z,24.53
2023-07-23T05:36:08.749Z,25.29
2023-07-23T05:38:35.311Z,26.04
2023-07-23T05:41:01.905Z,25.63
2023-07-23T05:43:31.304Z,26.76
2023-07-23T05:45:57.880Z,27.09
2023-07-23T05:48:24.421Z,25.34
2023-07-23T05:50:51.036Z,25.60
2023-07-23T05:53:17.688Z,24.90
2023-07-23T05:55:44.234Z,26.71
2023-07-23T05:58:10.810Z,26.33
2023-07-23T06:00:37.409Z,24.62
2023-07-23T06:03:04.202Z,24.58
2023-07-23T06:05:30.847Z,27.11
2023-07-23T06:07:57.456Z,26.01
2023-07-23T06:10:24.092Z,24.75
2023-07-23T06:12:50.675Z,24.46
2023-07-23T06:15:17.374Z,25.22
2023-07-23T06:17:44.033Z,26.92
2023-07-23T06:20:10.648Z,25.57
2023-07-23T06:22:37.190Z,25.96
2023-07-23T06:25:03.837Z,25.23
2023-07-23T06:27:30.443Z,26.14
2023-07-23T06:29:57.016Z,25.21
2023-07-23T06:32:23.634Z,26.89
2023-07-23T06:34:50.322Z,27.97
2023-07-23T06:37:16.910Z,27.21
2023-07-23T06:39:43.544Z,26.71
2023-07-23T06:42:10.132Z,26.68
2023-07-23T06:44:36.739Z,26.86
2023-07-23T06:47:03.388Z,27.14
2023-07-23T06:49:30.123Z,26.77
2023-07-23T06:51:56.833Z,26.87
2023-07-23T06:54:23.455Z,27.08
2023-07-23T06:56:50.036Z,26.61
2023-07-23T06:59:16.598Z,26.75
2023-07-23T07:01:43.239Z,25.04
2023-07-23T07:04:09.836Z,26.03
2023-07-23T07:06:36.463Z,25.27
2023-07-23T07:09:03.050Z,25.41
2023-07-23T07:11:29.800Z,26.34
2023-07-23T07:13:56.527Z,25.73
2023-07-23T07:16:23.126Z,27.67
2023-07-23T07:18:49.775Z,28.03
2023-07-23T07:21:16.352Z,27.55
2023-07-23T07:23:42.939Z,27.26
2023-07-23T07:26:09.573Z,27.98
2023-07-23T07:28:36.157Z,27.03
2023-07-23T07:31:02.776Z,26.55
2023-07-23T07:33:29.400Z,26.17
2023-07-23T07:35:58.856Z,27.72
2023-07-23T07:38:25.419Z,27.53
2023-07-23T07:40:52.010Z,25.88
2023-07-23T07:43:18.597Z,25.74
2023-07-23T07:45:45.269Z,27.94
2023-07-23T07:48:11.895Z,26.62
2023-07-23T07:50:38.448Z,26.89
2023-07-23T07:53:05.108Z,29.38
2023-07-23T07:55:31.691Z,28.24
2023-07-23T07:57:58.230Z,29.95
2023-07-23T08:00:24.825Z,28.28
2023-07-23T08:02:51.562Z,27.97
2023-07-23T08:05:18.435Z,26.71
2023-07-23T08:07:45.055Z,28.69
2023-07-23T08:10:11.640Z,27.31
2023-07-23T08:12:38.250Z,27.62
2023-07-23T08:15:04.837Z,27.44
2023-07-23T08:17:31.435Z,27.16
2023-07-23T08:19:58.025Z,28.29
2023-07-23T08:22:24.683Z,28.31
2023-07-23T08:24:51.445Z,29.76
2023-07-23T08:27:18.025Z,28.71
2023-07-23T08:29:44.674Z,29.79
2023-07-23T08:32:11.256Z,30.20
2023-07-23T08:34:37.823Z,30.97
2023-07-23T08:37:04.340Z,29.47
2023-07-23T08:39:30.944Z,28.08
2023-07-23T08:41:57.729Z,29.04
2023-07-23T08:44:24.371Z,28.45
2023-07-23T08:46:50.933Z,29.79
2023-07-23T08:49:17.452Z,28.83
2023-07-23T08:51:44.000Z,29.81
2023-07-23T08:54:10.560Z,28.52
2023-07-23T08:56:37.960Z,28.01
2023-07-23T08:59:04.670Z,29.57
2023-07-23T09:01:31.432Z,28.97
2023-07-23T09:03:58.387Z,31.52
2023-07-23T09:06:25.018Z,29.09
2023-07-23T09:08:51.567Z,29.86
2023-07-23T09:11:18.143Z,29.54
2023-07-23T09:13:44.770Z,30.39
2023-07-23T09:16:11.342Z,30.56
2023-07-23T09:18:37.848Z,27.10
2023-07-23T09:21:04.381Z,28.86
2023-07-23T09:23:30.870Z,27.22
2023-07-23T09:25:57.419Z,29.17
2023-07-23T09:28:23.992Z,27.91
2023-07-23T09:30:50.721Z,29.79
2023-07-23T09:33:17.291Z,29.72
2023-07-23T09:35:43.857Z,28.90
2023-07-23T09:38:10.447Z,28.89
2023-07-23T09:40:36.997Z,28.13
2023-07-23T09:43:03.605Z,30.34
2023-07-23T09:45:30.146Z,31.89
2023-07-23T09:48:06.050Z,32.14
2023-07-23T09:50:41.144Z,28.84
2023-07-23T09:53:07.798Z,30.59
2023-07-23T09:55:34.373Z,29.72
2023-07-23T09:58:00.902Z,29.38
2023-07-23T10:00:27.437Z,31.27
2023-07-23T10:02:54.001Z,33.30
2023-07-23T10:05:20.613Z,32.07
2023-07-23T10:07:47.152Z,29.27
2023-07-23T10:10:13.697Z,30.41
2023-07-23T10:12:40.223Z,30.80
2023-07-23T10:15:07.053Z,31.63
2023-07-23T10:17:33.662Z,31.94
2023-07-23T10:20:00.234Z,30.80
2023-07-23T10:22:26.777Z,32.90
2023-07-23T10:24:53.480Z,32.57
2023-07-23T10:27:20.124Z,31.35
2023-07-23T10:29:46.648Z,29.68
2023-07-23T10:32:13.189Z,29.30
2023-07-23T10:34:39.729Z,29.83
2023-07-23T10:37:06.429Z,32.76
2023-07-23T10:39:33.003Z,33.68
2023-07-23T10:41:59.592Z,32.43
2023-07-23T10:44:26.344Z,32.42
2023-07-23T10:46:52.884Z,31.64
2023-07-23T10:49:19.430Z,31.12
2023-07-23T10:51:46.084Z,33.40
2023-07-23T10:54:12.625Z,36.31
2023-07-23T10:56:39.159Z,50.98
2023-07-23T10:59:05.691Z,55.26
2023-07-23T11:01:32.376Z,61.90
2023-07-23T11:03:59.226Z,65.90
2023-07-23T11:06:25.736Z,62.66
2023-07-23T11:08:52.305Z,60.64
2023-07-23T11:11:18.853Z,61.61
2023-07-23T11:13:45.398Z,62.00
2023-07-23T11:16:11.985Z,62.50
2023-07-23T11:18:40.249Z,62.26
2023-07-23T11:21:07.770Z,58.61
2023-07-23T11:23:34.485Z,57.58
2023-07-23T11:26:01.411Z,60.20
2023-07-23T11:28:28.061Z,56.98
2023-07-23T11:30:54.575Z,58.62
2023-07-23T11:33:21.116Z,56.92
2023-07-23T11:35:48.301Z,61.29
2023-07-23T11:38:16.922Z,61.64
2023-07-23T11:40:43.441Z,61.58
2023-07-23T11:43:10.072Z,60.10
2023-07-23T11:45:36.935Z,57.10
2023-07-23T11:48:03.561Z,57.84
2023-07-23T11:50:30.193Z,61.18
2023-07-23T11:52:56.782Z,65.30
2023-07-23T11:55:23.601Z,66.21
2023-07-23T11:57:50.183Z,67.78
2023-07-23T12:00:16.707Z,68.19
2023-07-23T12:02:43.295Z,69.51
2023-07-23T12:05:10.032Z,69.88
2023-07-23T12:07:36.564Z,73.26
2023-07-23T12:10:03.112Z,74.28
2023-07-23T12:12:29.848Z,73.67
2023-07-23T12:14:56.387Z,73.54
2023-07-23T12:17:22.991Z,78.73
2023-07-23T12:19:49.572Z,76.08
2023-07-23T12:22:16.156Z,76.44
2023-07-23T12:24:43.299Z,74.77
2023-07-23T12:27:10.346Z,74.31
2023-07-23T12:29:36.903Z,74.59
2023-07-23T12:32:03.468Z,76.36
2023-07-23T12:34:30.047Z,77.56
2023-07-23T12:36:56.577Z,78.16
2023-07-23T12:39:23.615Z,83.36
2023-07-23T12:41:50.213Z,79.35
2023-07-23T12:44:16.800Z,80.05
2023-07-23T12:46:43.434Z,80.38
2023-07-23T12:49:10.050Z,78.23
2023-07-23T12:51:36.811Z,77.94
2023-07-23T12:54:03.342Z,78.47
2023-07-23T12:56:30.146Z,80.92
2023-07-23T12:58:57.129Z,81.40
2023-07-23T13:01:23.788Z,80.11
2023-07-23T13:03:50.568Z,73.96
2023-07-23T13:06:17.345Z,75.57
2023-07-23T13:08:43.925Z,75.45
2023-07-23T13:11:10.525Z,76.61
2023-07-23T13:13:37.050Z,77.58
2023-07-23T13:16:03.638Z,80.02
2023-07-23T13:18:32.060Z,80.58
2023-07-23T13:20:58.632Z,82.31
2023-07-23T13:23:25.312Z,82.22
2023-07-23T13:25:52.052Z,85.76
2023-07-23T13:28:18.591Z,83.66
2023-07-23T13:30:45.399Z,82.36
2023-07-23T13:33:12.370Z,81.09
2023-07-23T13:35:39.030Z,78.54
2023-07-23T13:38:05.574Z,76.16
2023-07-23T13:40:32.089Z,75.22
2023-07-23T13:42:58.669Z,76.03
2023-07-23T13:45:25.284Z,67.99
2023-07-23T13:47:51.977Z,68.52
2023-07-23T13:50:18.573Z,70.77
2023-07-23T13:52:45.206Z,66.19
2023-07-23T13:55:11.754Z,94.77
2023-07-23T13:57:38.287Z,100.62
2023-07-23T14:00:04.930Z,104.99
2023-07-23T14:02:31.651Z,101.57
2023-07-23T14:04:58.218Z,104.38
2023-07-23T14:07:24.776Z,98.12
2023-07-23T14:09:51.341Z,97.54
2023-07-23T14:12:17.924Z,93.99
2023-07-23T14:14:44.484Z,94.31
2023-07-23T14:17:11.012Z,88.49
2023-07-23T14:19:37.596Z,88.87
2023-07-23T14:22:04.413Z,88.22
2023-07-23T14:24:31.487Z,87.66
2023-07-23T14:26:57.992Z,88.89
2023-07-23T14:29:24.628Z,84.31
2023-07-23T14:31:51.313Z,82.97
2023-07-23T14:34:17.984Z,83.89
2023-07-23T14:36:44.932Z,79.81
2023-07-23T14:39:11.488Z,82.31
2023-07-23T14:41:38.505Z,81.50
2023-07-23T14:44:05.087Z,77.25
2023-07-23T14:46:31.700Z,77.21
2023-07-23T14:48:58.351Z,75.11
2023-07-23T14:51:24.937Z,76.16
2023-07-23T14:53:51.626Z,76.13
2023-07-23T14:56:18.785Z,77.74
2023-07-23T14:58:46.027Z,73.08
2023-07-23T15:01:12.613Z,76.89
2023-07-23T15:03:39.317Z,74.43
2023-07-23T15:06:06.013Z,77.33
2023-07-23T15:08:32.851Z,74.95
2023-07-23T15:10:59.807Z,76.33
2023-07-23T15:13:26.540Z,74.96
2023-07-23T15:15:53.496Z,77.35
2023-07-23T15:18:20.208Z,75.08
2023-07-23T15:20:52.205Z,73.52
2023-07-23T15:23:18.805Z,71.80
2023-07-23T15:25:45.427Z,74.31
2023-07-23T15:28:11.958Z,73.65
2023-07-23T15:30:38.532Z,72.54
2023-07-23T15:33:05.426Z,76.72
2023-07-23T15:35:32.506Z,74.58
2023-07-23T15:37:59.077Z,71.28
2023-07-23T15:40:25.757Z,73.32
2023-07-23T15:42:52.372Z,75.51
2023-07-23T15:45:18.979Z,78.03
2023-07-23T15:47:45.668Z,75.40
2023-07-23T15:50:12.288Z,73.45
2023-07-23T15:52:38.857Z,74.75
2023-07-23T15:55:05.806Z,73.98
2023-07-23T15:57:32.572Z,76.20
2023-07-23T15:59:59.173Z,72.99
2023-07-23T16:02:25.804Z,76.37
2023-07-23T16:04:52.529Z,75.67
2023-07-23T16:07:19.111Z,75.44
2023-07-23T16:09:45.649Z,74.61
2023-07-23T16:12:12.211Z,75.23
2023-07-23T16:14:38.782Z,75.41
2023-07-23T16:17:05.454Z,77.35
2023-07-23T16:19:32.009Z,73.56
2023-07-23T16:21:58.583Z,76.13
2023-07-23T16:24:25.218Z,73.91
2023-07-23T16:26:51.815Z,73.84
2023-07-23T16:29:18.338Z,77.94
2023-07-23T16:31:44.887Z,76.94
2023-07-23T16:34:11.456Z,74.99
2023-07-23T16:36:38.049Z,76.28
2023-07-23T16:39:04.598Z,78.34
2023-07-23T16:41:31.268Z,77.19
2023-07-23T16:43:58.056Z,76.28
2023-07-23T16:46:24.620Z,79.53
2023-07-23T16:48:51.232Z,77.83
2023-07-23T16:51:17.776Z,78.68
2023-07-23T16:53:44.337Z,79.17
2023-07-23T16:56:10.877Z,78.37
2023-07-23T16:58:37.804Z,84.96
2023-07-23T17:01:04.658Z,81.69
2023-07-23T17:03:31.276Z,83.02
2023-07-23T17:05:57.883Z,80.45
2023-07-23T17:08:24.408Z,84.00
2023-07-23T17:10:50.974Z,85.09
2023-07-23T17:13:17.734Z,86.50
2023-07-23T17:15:44.335Z,85.15
2023-07-23T17:18:10.887Z,85.81
2023-07-23T17:20:37.447Z,87.45
2023-07-23T17:23:04.006Z,87.94
2023-07-23T17:25:30.618Z,86.77
2023-07-23T17:27:57.190Z,88.03
2023-07-23T17:30:23.760Z,87.80
2023-07-23T17:32:50.413Z,86.47
2023-07-23T17:35:17.010Z,90.21
2023-07-23T17:37:43.549Z,91.46
2023-07-23T17:40:10.097Z,88.80
2023-07-23T17:42:36.639Z,89.77
2023-07-23T17:45:03.193Z,88.66
2023-07-23T17:47:29.780Z,89.79
2023-07-23T17:49:56.406Z,87.81
2023-07-23T17:52:23.015Z,86.39
2023-07-23T17:54:49.652Z,87.76
2023-07-23T17:57:16.249Z,89.35
2023-07-23T17:59:42.825Z,85.69
2023-07-23T18:02:09.376Z,89.10
2023-07-23T18:04:36.015Z,89.66
2023-07-23T18:07:02.651Z,88.54
2023-07-23T18:09:29.403Z,86.00
2023-07-23T18:11:56.075Z,86.58
2023-07-23T18:14:22.642Z,84.90
2023-07-23T18:16:49.354Z,86.55
2023-07-23T18:19:16.076Z,85.27
2023-07-23T18:21:42.689Z,86.85
2023-07-23T18:24:09.289Z,88.94
2023-07-23T18:26:35.922Z,88.66
2023-07-23T18:29:02.554Z,84.90
2023-07-23T18:31:34.653Z,88.39
2023-07-23T18:34:02.285Z,87.55
2023-07-23T18:36:29.161Z,85.18
2023-07-23T18:38:56.054Z,88.24
2023-07-23T18:41:22.606Z,86.61
2023-07-23T18:43:49.225Z,86.66
2023-07-23T18:46:15.774Z,89.80
2023-07-23T18:48:42.415Z,87.12
2023-07-23T18:51:08.994Z,88.32
2023-07-23T18:53:35.633Z,87.30
2023-07-23T18:56:02.182Z,86.00
2023-07-23T18:58:28.811Z,82.14
2023-07-23T19:00:55.398Z,87.11
2023-07-23T19:03:21.910Z,83.53
2023-07-23T19:05:48.444Z,85.86
2023-07-23T19:08:15.003Z,89.11
2023-07-23T19:10:41.559Z,87.01
2023-07-23T19:13:08.255Z,89.23
2023-07-23T19:15:34.822Z,84.37
2023-07-23T19:18:01.390Z,86.54
2023-07-23T19:20:28.054Z,85.09
2023-07-23T19:22:54.584Z,85.40
2023-07-23T19:25:21.165Z,88.66
2023-07-23T19:27:50.484Z,88.91
2023-07-23T19:30:17.149Z,88.34
2023-07-23T19:32:43.714Z,85.37
2023-07-23T19:35:10.260Z,88.43
2023-07-23T19:37:36.824Z,85.70
2023-07-23T19:40:03.384Z,86.91
2023-07-23T19:42:29.919Z,85.25
2023-07-23T19:44:56.456Z,88.96
2023-07-23T19:47:23.028Z,86.57
2023-07-23T19:49:49.569Z,88.28
2023-07-23T19:52:16.178Z,89.01
2023-07-23T19:54:42.770Z,89.23
2023-07-23T19:57:09.499Z,87.25
2023-07-23T19:59:36.033Z,88.59
2023-07-23T20:02:03.158Z,92.07
2023-07-23T20:04:29.783Z,88.33
2023-07-23T20:06:56.406Z,91.08
2023-07-23T20:09:25.921Z,88.91
2023-07-23T20:11:52.692Z,86.43
2023-07-23T20:14:19.249Z,88.77
2023-07-23T20:16:45.925Z,93.32
2023-07-23T20:19:12.631Z,92.12
2023-07-23T20:21:44.390Z,90.21
2023-07-23T20:24:11.858Z,88.74
2023-07-23T20:26:38.499Z,94.14
2023-07-23T20:29:05.329Z,94.01
2023-07-23T20:31:33.796Z,93.85
2023-07-23T20:34:02.081Z,94.26
2023-07-23T20:36:28.842Z,93.54
2023-07-23T20:38:55.603Z,93.71
2023-07-23T20:41:22.953Z,95.95
2023-07-23T20:43:49.639Z,94.26
2023-07-23T20:46:16.383Z,95.84
2023-07-23T20:48:43.042Z,93.15
2023-07-23T20:51:09.664Z,95.63
2023-07-23T20:53:36.210Z,96.57
2023-07-23T20:56:02.764Z,92.54
2023-07-23T20:58:29.347Z,97.18
2023-07-23T21:00:56.125Z,94.31
2023-07-23T21:03:22.749Z,94.32
2023-07-23T21:05:51.737Z,92.81
2023-07-23T21:08:18.480Z,94.66
2023-07-23T21:10:45.046Z,93.15
2023-07-23T21:13:11.586Z,97.21
2023-07-23T21:15:38.317Z,95.10
2023-07-23T21:18:04.961Z,96.92
2023-07-23T21:20:31.554Z,96.72
2023-07-23T21:22:58.118Z,95.26
2023-07-23T21:25:24.716Z,95.08
2023-07-23T21:27:51.288Z,90.12
2023-07-23T21:30:17.865Z,88.52
2023-07-23T21:32:44.536Z,87.17
2023-07-23T21:35:11.624Z,83.65
2023-07-23T21:37:38.638Z,81.75
2023-07-23T21:40:05.316Z,86.57
2023-07-23T21:42:31.875Z,83.14
2023-07-23T21:44:58.434Z,77.58
2023-07-23T21:47:25.046Z,78.44
2023-07-23T21:49:51.622Z,77.58
2023-07-23T21:52:18.198Z,74.86
2023-07-23T21:54:44.751Z,73.59
2023-07-23T21:57:11.359Z,71.39
2023-07-23T21:59:37.959Z,73.30
2023-07-23T22:02:04.536Z,67.13
2023-07-23T22:04:31.204Z,64.05
2023-07-23T22:06:57.730Z,72.51
2023-07-23T22:09:24.572Z,65.49
2023-07-23T22:11:51.119Z,63.17
2023-07-23T22:14:17.636Z,60.26
2023-07-23T22:16:44.329Z,49.53
2023-07-23T22:19:11.077Z,56.41
2023-07-23T22:21:38.088Z,51.84
2023-07-23T22:24:04.626Z,59.18
2023-07-23T22:26:31.317Z,54.39
2023-07-23T22:28:58.098Z,50.37
2023-07-23T22:31:24.665Z,54.31
2023-07-23T22:33:51.262Z,52.40
2023-07-23T22:36:17.801Z,54.95
2023-07-23T22:38:44.319Z,52.59
2023-07-23T22:41:10.880Z,54.31
2023-07-23T22:43:38.964Z,50.97
2023-07-23T22:46:09.284Z,50.68
2023-07-23T22:48:35.868Z,51.98
2023-07-23T22:51:03.354Z,49.69
2023-07-23T22:53:30.127Z,48.78
2023-07-23T22:55:56.757Z,50.69
2023-07-23T22:58:23.363Z,48.13
2023-07-23T23:00:49.959Z,48.74
2023-07-23T23:03:16.649Z,47.48
2023-07-23T23:05:43.414Z,48.65
2023-07-23T23:08:09.954Z,50.34
2023-07-23T23:10:36.638Z,53.87
2023-07-23T23:13:04.207Z,47.95
2023-07-23T23:15:30.822Z,50.73
2023-07-23T23:17:57.447Z,47.75
2023-07-23T23:20:24.100Z,49.15
2023-07-23T23:22:50.734Z,48.20
2023-07-23T23:25:17.330Z,48.62
2023-07-23T23:27:44.041Z,47.96
2023-07-23T23:30:10.780Z,48.22
2023-07-23T23:32:37.480Z,49.51
2023-07-23T23:35:04.137Z,47.23
2023-07-23T23:37:30.710Z,46.90
2023-07-23T23:39:57.387Z,49.52
2023-07-23T23:42:24.004Z,47.23
2023-07-23T23:44:50.603Z,46.33
2023-07-23T23:47:17.178Z,43.85
2023-07-23T23:49:43.744Z,46.15
2023-07-23T23:52:10.394Z,47.02
2023-07-23T23:54:37.182Z,46.29
2023-07-23T23:57:03.790Z,47.19
2023-07-23T23:59:30.302Z,43.36
